sensor_id;sensor_type;location;lat;lon;timestamp;P1;durP1;ratioP1;P2;durP2;ratioP2
73823;SDS011;62154;54.914;73.444;2023-01-24T14:02:36;34.28;;;13.00;;
73823;SDS011;62154;54.914;73.444;2023-01-24T14:05:33;32.60;;;14.10;;
73823;SDS011;62154;54.914;73.444;2023-01-24T14:10:49;22.98;;;10.63;;
73823;SDS011;62154;54.914;73.444;2023-01-24T14:18:55;23.65;;;9.50;;
73823;SDS011;62154;54.914;73.444;2023-01-24T14:21:25;20.45;;;9.02;;
73823;SDS011;62154;54.914;73.444;2023-01-24T14:24:01;28.48;;;11.35;;
73823;SDS011;62154;54.914;73.444;2023-01-24T14:26:45;22.15;;;10.65;;
73823;SDS011;62154;54.914;73.444;2023-01-24T14:29:28;24.95;;;10.68;;
73823;SDS011;62154;54.914;73.444;2023-01-24T14:32:40;37.10;;;15.20;;
73823;SDS011;62154;54.914;73.444;2023-01-24T14:35:18;134.43;;;46.38;;
73823;SDS011;62154;54.914;73.444;2023-01-24T14:38:09;96.28;;;34.20;;
73823;SDS011;62154;54.914;73.444;2023-01-24T14:40:51;160.20;;;53.42;;
73823;SDS011;62154;54.914;73.444;2023-01-24T14:43:20;95.80;;;35.97;;
73823;SDS011;62154;54.914;73.444;2023-01-24T14:46:16;155.25;;;53.60;;
73823;SDS011;62154;54.914;73.444;2023-01-24T14:51:18;36.88;;;13.85;;
73823;SDS011;62154;54.914;73.444;2023-01-24T14:53:50;56.33;;;21.48;;
73823;SDS011;62154;54.914;73.444;2023-01-24T14:56:20;62.40;;;24.15;;
73823;SDS011;62154;54.914;73.444;2023-01-24T14:58:50;68.47;;;23.23;;
73823;SDS011;62154;54.914;73.444;2023-01-24T15:01:29;30.83;;;11.50;;
73823;SDS011;62154;54.914;73.444;2023-01-24T15:04:01;21.50;;;10.18;;
73823;SDS011;62154;54.914;73.444;2023-01-24T15:06:41;20.13;;;8.48;;
73823;SDS011;62154;54.914;73.444;2023-01-24T15:09:18;19.85;;;9.05;;
73823;SDS011;62154;54.914;73.444;2023-01-24T15:11:57;21.58;;;9.43;;
73823;SDS011;62154;54.914;73.444;2023-01-24T15:14:47;34.95;;;12.70;;
73823;SDS011;62154;54.914;73.444;2023-01-24T15:17:28;25.50;;;11.60;;
73823;SDS011;62154;54.914;73.444;2023-01-24T15:20:11;33.45;;;12.57;;
73823;SDS011;62154;54.914;73.444;2023-01-24T15:22:49;23.33;;;10.05;;
73823;SDS011;62154;54.914;73.444;2023-01-24T15:27:56;53.17;;;17.50;;
73823;SDS011;62154;54.914;73.444;2023-01-24T15:30:34;30.84;;;11.81;;
73823;SDS011;62154;54.914;73.444;2023-01-24T15:35:38;22.73;;;9.40;;
73823;SDS011;62154;54.914;73.444;2023-01-24T15:43:22;25.67;;;9.15;;
73823;SDS011;62154;54.914;73.444;2023-01-24T15:46:22;68.32;;;24.35;;
73823;SDS011;62154;54.914;73.444;2023-01-24T15:49:16;23.08;;;9.40;;
73823;SDS011;62154;54.914;73.444;2023-01-24T15:52:00;30.48;;;11.80;;
73823;SDS011;62154;54.914;73.444;2023-01-24T15:54:31;33.80;;;13.30;;
73823;SDS011;62154;54.914;73.444;2023-01-24T15:56:59;64.78;;;21.50;;
73823;SDS011;62154;54.914;73.444;2023-01-24T15:59:39;57.60;;;20.48;;
73823;SDS011;62154;54.914;73.444;2023-01-24T16:02:12;36.83;;;13.02;;
73823;SDS011;62154;54.914;73.444;2023-01-24T16:04:40;23.45;;;11.43;;
73823;SDS011;62154;54.914;73.444;2023-01-24T16:07:08;15.30;;;7.38;;
73823;SDS011;62154;54.914;73.444;2023-01-24T16:09:40;21.55;;;9.68;;
73823;SDS011;62154;54.914;73.444;2023-01-24T16:12:08;28.23;;;10.73;;
73823;SDS011;62154;54.914;73.444;2023-01-24T16:14:43;19.77;;;7.88;;
73823;SDS011;62154;54.914;73.444;2023-01-24T16:17:19;24.88;;;11.95;;
73823;SDS011;62154;54.914;73.444;2023-01-24T16:19:54;31.23;;;11.30;;
73823;SDS011;62154;54.914;73.444;2023-01-24T16:22:26;20.38;;;8.60;;
73823;SDS011;62154;54.914;73.444;2023-01-24T16:24:59;23.95;;;9.57;;
73823;SDS011;62154;54.914;73.444;2023-01-24T16:27:28;18.08;;;8.30;;
73823;SDS011;62154;54.914;73.444;2023-01-24T16:30:00;18.38;;;8.05;;
73823;SDS011;62154;54.914;73.444;2023-01-24T16:32:29;17.80;;;7.72;;
73823;SDS011;62154;54.914;73.444;2023-01-24T16:34:56;20.33;;;8.32;;
73823;SDS011;62154;54.914;73.444;2023-01-24T16:37:23;20.55;;;9.80;;
73823;SDS011;62154;54.914;73.444;2023-01-24T16:39:55;27.08;;;11.65;;
73823;SDS011;62154;54.914;73.444;2023-01-24T16:42:23;22.30;;;9.75;;
73823;SDS011;62154;54.914;73.444;2023-01-24T16:45:00;22.80;;;9.13;;
73823;SDS011;62154;54.914;73.444;2023-01-24T16:47:35;19.40;;;8.43;;
73823;SDS011;62154;54.914;73.444;2023-01-24T16:50:04;24.25;;;10.80;;
73823;SDS011;62154;54.914;73.444;2023-01-24T16:52:37;24.65;;;11.07;;
73823;SDS011;62154;54.914;73.444;2023-01-24T16:55:16;24.70;;;10.65;;
73823;SDS011;62154;54.914;73.444;2023-01-24T16:57:46;25.85;;;10.88;;
73823;SDS011;62154;54.914;73.444;2023-01-24T17:00:13;25.13;;;11.57;;
73823;SDS011;62154;54.914;73.444;2023-01-24T17:02:48;24.70;;;10.65;;
73823;SDS011;62154;54.914;73.444;2023-01-24T17:05:21;26.80;;;11.27;;
73823;SDS011;62154;54.914;73.444;2023-01-24T17:07:58;18.95;;;9.35;;
73823;SDS011;62154;54.914;73.444;2023-01-24T17:10:25;37.80;;;15.93;;
73823;SDS011;62154;54.914;73.444;2023-01-24T17:12:53;48.03;;;20.13;;
73823;SDS011;62154;54.914;73.444;2023-01-24T17:15:24;34.30;;;12.82;;
73823;SDS011;62154;54.914;73.444;2023-01-24T17:17:51;64.65;;;22.65;;
73823;SDS011;62154;54.914;73.444;2023-01-24T17:20:18;23.35;;;10.05;;
73823;SDS011;62154;54.914;73.444;2023-01-24T17:22:51;36.28;;;12.65;;
73823;SDS011;62154;54.914;73.444;2023-01-24T17:25:18;24.15;;;10.95;;
73823;SDS011;62154;54.914;73.444;2023-01-24T17:27:45;26.42;;;10.55;;
73823;SDS011;62154;54.914;73.444;2023-01-24T17:30:13;20.25;;;8.93;;
73823;SDS011;62154;54.914;73.444;2023-01-24T17:32:41;30.27;;;12.52;;
73823;SDS011;62154;54.914;73.444;2023-01-24T17:35:11;30.40;;;13.00;;
73823;SDS011;62154;54.914;73.444;2023-01-24T17:37:50;31.30;;;11.98;;
73823;SDS011;62154;54.914;73.444;2023-01-24T17:40:17;30.17;;;13.77;;
73823;SDS011;62154;54.914;73.444;2023-01-24T17:42:45;35.00;;;14.95;;
73823;SDS011;62154;54.914;73.444;2023-01-24T17:45:17;34.90;;;13.02;;
73823;SDS011;62154;54.914;73.444;2023-01-24T17:47:44;34.05;;;14.27;;
73823;SDS011;62154;54.914;73.444;2023-01-24T17:50:11;35.33;;;17.77;;
73823;SDS011;62154;54.914;73.444;2023-01-24T17:52:44;42.53;;;17.40;;
73823;SDS011;62154;54.914;73.444;2023-01-24T17:55:21;30.75;;;12.85;;
73823;SDS011;62154;54.914;73.444;2023-01-24T17:57:49;29.77;;;12.38;;
73823;SDS011;62154;54.914;73.444;2023-01-24T18:00:16;26.33;;;12.38;;
73823;SDS011;62154;54.914;73.444;2023-01-24T18:02:46;37.00;;;14.25;;
73823;SDS011;62154;54.914;73.444;2023-01-24T18:05:15;43.45;;;16.23;;
73823;SDS011;62154;54.914;73.444;2023-01-24T18:07:42;49.25;;;16.70;;
73823;SDS011;62154;54.914;73.444;2023-01-24T18:10:10;28.30;;;12.85;;
73823;SDS011;62154;54.914;73.444;2023-01-24T18:12:40;42.50;;;14.00;;
73823;SDS011;62154;54.914;73.444;2023-01-24T18:15:12;39.17;;;13.27;;
73823;SDS011;62154;54.914;73.444;2023-01-24T18:17:39;41.03;;;17.67;;
73823;SDS011;62154;54.914;73.444;2023-01-24T18:20:07;29.52;;;14.00;;
73823;SDS011;62154;54.914;73.444;2023-01-24T18:22:39;30.65;;;12.20;;
73823;SDS011;62154;54.914;73.444;2023-01-24T18:25:17;37.05;;;15.65;;
73823;SDS011;62154;54.914;73.444;2023-01-24T18:27:50;21.17;;;10.43;;
73823;SDS011;62154;54.914;73.444;2023-01-24T18:30:18;29.73;;;12.02;;
73823;SDS011;62154;54.914;73.444;2023-01-24T18:32:45;29.10;;;12.57;;
73823;SDS011;62154;54.914;73.444;2023-01-24T18:35:14;35.22;;;12.75;;
73823;SDS011;62154;54.914;73.444;2023-01-24T18:37:42;43.70;;;18.48;;
73823;SDS011;62154;54.914;73.444;2023-01-24T18:40:13;97.82;;;37.35;;
73823;SDS011;62154;54.914;73.444;2023-01-24T18:42:43;48.40;;;21.08;;
73823;SDS011;62154;54.914;73.444;2023-01-24T18:45:10;37.28;;;14.68;;
73823;SDS011;62154;54.914;73.444;2023-01-24T18:47:43;43.38;;;15.02;;
73823;SDS011;62154;54.914;73.444;2023-01-24T18:50:10;28.83;;;11.20;;
73823;SDS011;62154;54.914;73.444;2023-01-24T18:52:37;24.73;;;9.18;;
73823;SDS011;62154;54.914;73.444;2023-01-24T18:55:10;28.80;;;11.25;;
73823;SDS011;62154;54.914;73.444;2023-01-24T18:57:41;32.58;;;13.73;;
73823;SDS011;62154;54.914;73.444;2023-01-24T19:00:08;21.05;;;10.30;;
73823;SDS011;62154;54.914;73.444;2023-01-24T19:02:36;25.80;;;10.77;;
73823;SDS011;62154;54.914;73.444;2023-01-24T19:05:03;23.50;;;10.70;;
73823;SDS011;62154;54.914;73.444;2023-01-24T19:07:37;24.17;;;10.00;;
73823;SDS011;62154;54.914;73.444;2023-01-24T19:10:05;25.45;;;10.35;;
73823;SDS011;62154;54.914;73.444;2023-01-24T19:12:34;35.61;;;12.17;;
73823;SDS011;62154;54.914;73.444;2023-01-24T19:15:01;22.30;;;9.73;;
73823;SDS011;62154;54.914;73.444;2023-01-24T19:17:29;27.10;;;11.77;;
73823;SDS011;62154;54.914;73.444;2023-01-24T19:20:01;23.13;;;9.82;;
73823;SDS011;62154;54.914;73.444;2023-01-24T19:22:36;24.26;;;11.84;;
73823;SDS011;62154;54.914;73.444;2023-01-24T19:25:03;29.08;;;11.98;;
73823;SDS011;62154;54.914;73.444;2023-01-24T19:27:31;33.80;;;10.50;;
73823;SDS011;62154;54.914;73.444;2023-01-24T19:30:01;26.98;;;8.90;;
73823;SDS011;62154;54.914;73.444;2023-01-24T19:32:29;23.13;;;9.18;;
73823;SDS011;62154;54.914;73.444;2023-01-24T19:34:56;26.75;;;9.63;;
73823;SDS011;62154;54.914;73.444;2023-01-24T19:37:31;23.17;;;10.32;;
73823;SDS011;62154;54.914;73.444;2023-01-24T19:40:04;27.45;;;9.70;;
73823;SDS011;62154;54.914;73.444;2023-01-24T19:42:35;28.33;;;11.02;;
73823;SDS011;62154;54.914;73.444;2023-01-24T19:45:02;25.08;;;7.75;;
73823;SDS011;62154;54.914;73.444;2023-01-24T19:47:40;18.52;;;8.32;;
73823;SDS011;62154;54.914;73.444;2023-01-24T19:50:12;21.80;;;8.27;;
73823;SDS011;62154;54.914;73.444;2023-01-24T19:52:52;26.03;;;9.41;;
73823;SDS011;62154;54.914;73.444;2023-01-24T19:55:21;20.38;;;7.88;;
73823;SDS011;62154;54.914;73.444;2023-01-24T19:57:48;21.92;;;8.27;;
73823;SDS011;62154;54.914;73.444;2023-01-24T20:00:17;25.88;;;7.53;;
73823;SDS011;62154;54.914;73.444;2023-01-24T20:02:58;19.56;;;7.20;;
73823;SDS011;62154;54.914;73.444;2023-01-24T20:05:26;21.80;;;7.68;;
73823;SDS011;62154;54.914;73.444;2023-01-24T20:07:55;20.08;;;8.10;;
73823;SDS011;62154;54.914;73.444;2023-01-24T20:10:25;15.57;;;7.20;;
73823;SDS011;62154;54.914;73.444;2023-01-24T20:12:57;21.88;;;7.50;;
73823;SDS011;62154;54.914;73.444;2023-01-24T20:15:30;22.55;;;8.13;;
73823;SDS011;62154;54.914;73.444;2023-01-24T20:17:58;17.30;;;7.30;;
73823;SDS011;62154;54.914;73.444;2023-01-24T20:20:25;23.17;;;7.30;;
73823;SDS011;62154;54.914;73.444;2023-01-24T20:22:58;20.02;;;7.82;;
73823;SDS011;62154;54.914;73.444;2023-01-24T20:25:25;20.88;;;7.70;;
73823;SDS011;62154;54.914;73.444;2023-01-24T20:27:52;16.33;;;7.40;;
73823;SDS011;62154;54.914;73.444;2023-01-24T20:30:24;23.55;;;9.05;;
73823;SDS011;62154;54.914;73.444;2023-01-24T20:32:56;16.73;;;6.82;;
73823;SDS011;62154;54.914;73.444;2023-01-24T20:35:24;17.38;;;8.30;;
73823;SDS011;62154;54.914;73.444;2023-01-24T20:37:57;15.43;;;7.72;;
73823;SDS011;62154;54.914;73.444;2023-01-24T20:40:34;19.90;;;7.88;;
73823;SDS011;62154;54.914;73.444;2023-01-24T20:43:11;22.38;;;9.02;;
73823;SDS011;62154;54.914;73.444;2023-01-24T20:45:39;32.15;;;11.45;;
73823;SDS011;62154;54.914;73.444;2023-01-24T20:48:16;23.63;;;8.52;;
73823;SDS011;62154;54.914;73.444;2023-01-24T20:50:44;18.35;;;7.97;;
73823;SDS011;62154;54.914;73.444;2023-01-24T20:53:24;18.30;;;8.18;;
73823;SDS011;62154;54.914;73.444;2023-01-24T20:55:56;23.40;;;8.35;;
73823;SDS011;62154;54.914;73.444;2023-01-24T20:58:34;18.50;;;7.63;;
73823;SDS011;62154;54.914;73.444;2023-01-24T21:01:06;19.88;;;7.38;;
73823;SDS011;62154;54.914;73.444;2023-01-24T21:03:41;16.92;;;7.10;;
73823;SDS011;62154;54.914;73.444;2023-01-24T21:06:10;23.38;;;7.53;;
73823;SDS011;62154;54.914;73.444;2023-01-24T21:08:49;27.27;;;8.35;;
73823;SDS011;62154;54.914;73.444;2023-01-24T21:11:18;21.50;;;7.57;;
73823;SDS011;62154;54.914;73.444;2023-01-24T21:13:51;16.78;;;7.28;;
73823;SDS011;62154;54.914;73.444;2023-01-24T21:16:23;28.70;;;10.55;;
73823;SDS011;62154;54.914;73.444;2023-01-24T21:18:53;17.55;;;6.82;;
73823;SDS011;62154;54.914;73.444;2023-01-24T21:21:27;24.70;;;7.22;;
73823;SDS011;62154;54.914;73.444;2023-01-24T21:24:11;23.17;;;8.00;;
73823;SDS011;62154;54.914;73.444;2023-01-24T21:26:42;24.73;;;9.07;;
73823;SDS011;62154;54.914;73.444;2023-01-24T21:29:10;20.63;;;7.50;;
73823;SDS011;62154;54.914;73.444;2023-01-24T21:31:38;26.80;;;9.32;;
73823;SDS011;62154;54.914;73.444;2023-01-24T21:34:05;19.10;;;8.03;;
73823;SDS011;62154;54.914;73.444;2023-01-24T21:36:33;27.48;;;8.88;;
73823;SDS011;62154;54.914;73.444;2023-01-24T21:39:03;23.95;;;8.40;;
73823;SDS011;62154;54.914;73.444;2023-01-24T21:41:37;22.45;;;8.02;;
73823;SDS011;62154;54.914;73.444;2023-01-24T21:44:34;18.58;;;8.00;;
73823;SDS011;62154;54.914;73.444;2023-01-24T21:47:11;18.00;;;7.70;;
73823;SDS011;62154;54.914;73.444;2023-01-24T21:49:38;21.20;;;8.45;;
73823;SDS011;62154;54.914;73.444;2023-01-24T21:52:05;27.13;;;9.70;;
73823;SDS011;62154;54.914;73.444;2023-01-24T21:54:42;25.63;;;10.57;;
73823;SDS011;62154;54.914;73.444;2023-01-24T21:57:10;23.52;;;8.60;;
73823;SDS011;62154;54.914;73.444;2023-01-24T22:02:25;27.15;;;8.70;;
73823;SDS011;62154;54.914;73.444;2023-01-24T22:04:54;19.65;;;7.72;;
73823;SDS011;62154;54.914;73.444;2023-01-24T22:07:23;16.27;;;7.18;;
73823;SDS011;62154;54.914;73.444;2023-01-24T22:09:52;19.27;;;7.53;;
73823;SDS011;62154;54.914;73.444;2023-01-24T22:12:21;24.38;;;8.77;;
73823;SDS011;62154;54.914;73.444;2023-01-24T22:14:49;23.85;;;8.38;;
73823;SDS011;62154;54.914;73.444;2023-01-24T22:17:18;19.27;;;7.90;;
73823;SDS011;62154;54.914;73.444;2023-01-24T22:19:48;19.00;;;7.35;;
73823;SDS011;62154;54.914;73.444;2023-01-24T22:22:29;14.88;;;6.72;;
73823;SDS011;62154;54.914;73.444;2023-01-24T22:28:16;15.90;;;6.60;;
73823;SDS011;62154;54.914;73.444;2023-01-24T22:30:49;16.60;;;7.35;;
73823;SDS011;62154;54.914;73.444;2023-01-24T22:33:16;13.38;;;7.05;;
73823;SDS011;62154;54.914;73.444;2023-01-24T22:35:44;20.63;;;8.25;;
73823;SDS011;62154;54.914;73.444;2023-01-24T22:38:18;17.15;;;6.57;;
73823;SDS011;62154;54.914;73.444;2023-01-24T22:40:56;19.83;;;7.20;;
73823;SDS011;62154;54.914;73.444;2023-01-24T22:43:29;18.17;;;7.15;;
73823;SDS011;62154;54.914;73.444;2023-01-24T22:46:05;13.57;;;7.32;;
73823;SDS011;62154;54.914;73.444;2023-01-24T22:48:42;18.27;;;7.07;;
73823;SDS011;62154;54.914;73.444;2023-01-24T22:51:09;17.95;;;6.10;;
73823;SDS011;62154;54.914;73.444;2023-01-24T22:53:36;17.45;;;6.13;;
73823;SDS011;62154;54.914;73.444;2023-01-24T22:56:04;20.75;;;7.18;;
73823;SDS011;62154;54.914;73.444;2023-01-24T22:58:31;17.73;;;6.70;;
73823;SDS011;62154;54.914;73.444;2023-01-24T23:01:03;12.10;;;5.75;;
73823;SDS011;62154;54.914;73.444;2023-01-24T23:03:40;12.93;;;6.20;;
73823;SDS011;62154;54.914;73.444;2023-01-24T23:06:13;15.73;;;4.93;;
73823;SDS011;62154;54.914;73.444;2023-01-24T23:08:44;17.88;;;6.65;;
73823;SDS011;62154;54.914;73.444;2023-01-24T23:11:19;14.77;;;6.15;;
73823;SDS011;62154;54.914;73.444;2023-01-24T23:13:47;16.50;;;6.47;;
73823;SDS011;62154;54.914;73.444;2023-01-24T23:19:34;15.98;;;6.15;;
73823;SDS011;62154;54.914;73.444;2023-01-24T23:22:39;16.95;;;6.45;;
73823;SDS011;62154;54.914;73.444;2023-01-24T23:25:07;18.15;;;6.70;;
73823;SDS011;62154;54.914;73.444;2023-01-24T23:27:35;18.17;;;7.80;;
73823;SDS011;62154;54.914;73.444;2023-01-24T23:32:41;17.83;;;7.10;;
73823;SDS011;62154;54.914;73.444;2023-01-24T23:35:16;22.27;;;8.40;;
73823;SDS011;62154;54.914;73.444;2023-01-24T23:37:50;27.88;;;9.68;;
73823;SDS011;62154;54.914;73.444;2023-01-24T23:40:17;17.35;;;7.75;;
73823;SDS011;62154;54.914;73.444;2023-01-24T23:42:49;25.60;;;9.65;;
73823;SDS011;62154;54.914;73.444;2023-01-24T23:45:17;35.73;;;14.67;;
73823;SDS011;62154;54.914;73.444;2023-01-24T23:47:45;23.92;;;12.73;;
73823;SDS011;62154;54.914;73.444;2023-01-24T23:50:13;21.20;;;8.95;;
73823;SDS011;62154;54.914;73.444;2023-01-24T23:52:40;26.13;;;9.45;;
73823;SDS011;62154;54.914;73.444;2023-01-24T23:55:18;23.56;;;8.40;;
73823;SDS011;62154;54.914;73.444;2023-01-24T23:57:45;15.48;;;8.35;;
